Time;durP1;ratioP1;P1;durP2;ratioP2;P2;SDS_P1;SDS_P2;PMS_P1;PMS_P2;Temp;Humidity;BMP_temperature;BMP_pressure;BME280_temperature;BME280_humidity;BME280_pressure;Samples;Min_cycle;Max_cycle;Signal;HPM_P1;HPM_P2
2021/07/06 00:02:18;;;;;;;8.30;6.35;;;;;;;22.67;100.00;99902.59;1767262;79;21008;-44
2021/07/06 00:04:48;;;;;;;5.47;4.62;;;;;;;22.66;100.00;99896.84;1772807;79;20967;-44
2021/07/06 00:07:17;;;;;;;;;;;;;;;22.67;100.00;99901.23;1777394;79;21587;-46
2021/07/06 00:09:46;;;;;;;5.60;3.08;;;;;;;22.71;100.00;99909.05;1768424;79;20106;-45
2021/07/06 00:12:14;;;;;;;5.03;3.45;;;;;;;22.71;100.00;99909.88;1782875;79;20973;-44
2021/07/06 00:14:41;;;;;;;3.17;2.60;;;;;;;22.72;100.00;99910.20;1733264;81;21013;-44
2021/07/06 00:17:07;;;;;;;3.75;3.02;;;;;;;22.75;100.00;99910.34;1737182;81;20987;-44
2021/07/06 00:19:35;;;;;;;3.60;3.10;;;;;;;22.77;100.00;99907.78;1745811;80;20951;-45
2021/07/06 00:22:03;;;;;;;3.42;3.08;;;;;;;22.79;100.00;99908.45;1751920;80;21604;-44
2021/07/06 00:24:31;;;;;;;4.60;2.75;;;;;;;22.80;100.00;99909.29;1749863;80;20928;-44
2021/07/06 00:26:57;;;;;;;4.33;3.00;;;;;;;22.81;100.00;99916.44;1757680;80;21533;-45
2021/07/06 00:29:24;;;;;;;3.02;2.27;;;;;;;22.78;100.00;99914.92;1739266;81;21414;-45
2021/07/06 00:31:51;;;;;;;3.52;2.90;;;;;;;22.76;100.00;99911.54;1738507;81;21018;-45
2021/07/06 00:34:17;;;;;;;3.15;2.85;;;;;;;22.77;100.00;99905.59;1737141;81;21002;-45
2021/07/06 00:36:46;;;;;;;9.70;3.17;;;;;;;22.75;100.00;99905.75;1738527;81;21021;-44
2021/07/06 00:39:13;;;;;;;3.62;2.72;;;;;;;22.74;100.00;99910.88;1738720;81;21006;-44
2021/07/06 00:41:42;;;;;;;5.58;3.05;;;;;;;22.73;100.00;99911.91;1739170;81;20962;-44
2021/07/06 00:44:19;;;;;;;4.53;2.92;;;;;;;22.68;100.00;99916.53;1744022;81;20951;-44
2021/07/06 00:46:46;;;;;;;5.28;2.85;;;;;;;22.66;100.00;99915.86;1737338;81;20984;-44
2021/07/06 00:49:14;;;;;;;3.70;3.30;;;;;;;22.65;100.00;99920.10;1738922;80;20959;-44
2021/07/06 00:51:40;;;;;;;5.35;3.40;;;;;;;22.58;100.00;99918.64;1749014;80;21003;-43
2021/07/06 00:54:07;;;;;;;8.25;3.05;;;;;;;22.53;100.00;99921.06;1751933;80;21403;-44
2021/07/06 00:56:35;;;;;;;3.80;2.90;;;;;;;22.47;100.00;99923.95;1751786;80;20955;-44
2021/07/06 00:59:02;;;;;;;3.47;3.02;;;;;;;22.45;100.00;99924.67;1748059;80;21858;-44
2021/07/06 01:01:28;;;;;;;3.20;2.90;;;;;;;22.48;100.00;99923.47;1749639;80;21010;-43
2021/07/06 01:03:55;;;;;;;5.87;2.92;;;;;;;22.49;100.00;99925.15;1705892;80;20995;-44
2021/07/06 01:06:22;;;;;;;6.87;4.83;;;;;;;22.49;100.00;99923.79;1749288;80;20983;-44
2021/07/06 01:08:48;;;;;;;5.15;3.90;;;;;;;22.51;100.00;99931.25;1752859;80;21018;-43
2021/07/06 01:11:16;;;;;;;3.60;3.00;;;;;;;22.51;100.00;99931.25;1748418;80;20911;-44
2021/07/06 01:13:42;;;;;;;3.45;2.75;;;;;;;22.49;100.00;99936.53;1743679;80;20964;-44
2021/07/06 01:16:09;;;;;;;3.62;2.85;;;;;;;22.47;100.00;99937.54;1748859;80;21535;-43
2021/07/06 01:18:37;;;;;;;5.80;3.45;;;;;;;22.45;100.00;99934.67;1743748;80;21502;-42
2021/07/06 01:21:04;;;;;;;4.00;3.05;;;;;;;22.43;100.00;99940.82;1748868;80;21485;-44
2021/07/06 01:23:31;;;;;;;3.77;2.90;;;;;;;22.41;100.00;99940.15;1748419;80;20963;-44
2021/07/06 01:26:06;;;;;;;3.72;3.20;;;;;;;22.42;100.00;99941.83;1748505;80;20943;-42
2021/07/06 01:28:36;;;;;;;5.05;2.92;;;;;;;22.38;100.00;99944.59;1749371;80;20935;-44
2021/07/06 01:31:03;;;;;;;4.75;3.30;;;;;;;22.32;100.00;99947.48;1747052;80;21382;-41
2021/07/06 01:33:32;;;;;;;4.75;3.55;;;;;;;22.25;100.00;99939.71;1749697;80;20931;-41
2021/07/06 01:36:03;;;;;;;6.97;3.05;;;;;;;22.24;100.00;99948.89;1749115;80;20962;-41
2021/07/06 01:38:30;;;;;;;3.92;3.25;;;;;;;22.23;100.00;99947.22;1753164;80;20982;-42
2021/07/06 01:40:57;;;;;;;4.33;2.40;;;;;;;22.25;100.00;99954.64;1749172;80;20936;-43
2021/07/06 01:43:24;;;;;;;4.12;3.00;;;;;;;22.23;100.00;99958.08;1744761;80;20975;-44
2021/07/06 01:45:51;;;;;;;4.03;3.08;;;;;;;22.24;100.00;99959.23;1749800;80;21494;-44
2021/07/06 01:48:18;;;;;;;3.90;2.50;;;;;;;22.23;100.00;99960.27;1752637;80;20976;-44
2021/07/06 01:50:44;;;;;;;3.33;3.02;;;;;;;22.18;100.00;99960.45;1748352;80;21015;-44
2021/07/06 01:53:17;;;;;;;6.17;3.35;;;;;;;22.16;100.00;99962.48;1745055;80;21047;-44
2021/07/06 01:55:46;;;;;;;4.95;4.45;;;;;;;22.13;100.00;99965.56;1749141;80;20951;-44
2021/07/06 01:58:15;;;;;;;5.62;3.30;;;;;;;22.09;100.00;99966.41;1753458;80;20928;-44
2021/07/06 02:00:50;;;;;;;5.15;3.30;;;;;;;22.07;100.00;99962.17;1781170;79;20973;-44
2021/07/06 02:03:17;;;;;;;4.75;3.52;;;;;;;22.06;100.00;99968.64;1768831;79;21426;-43
2021/07/06 02:05:46;;;;;;;3.35;2.87;;;;;;;22.03;100.00;99969.84;1780277;79;20973;-43
2021/07/06 02:08:18;;;;;;;5.47;3.83;;;;;;;22.01;100.00;99974.59;1778091;79;21004;-45
2021/07/06 02:10:47;;;;;;;4.28;3.30;;;;;;;22.01;100.00;99977.30;1781170;79;21245;-42
2021/07/06 02:13:17;;;;;;;6.17;3.55;;;;;;;22.02;100.00;99983.06;1781389;79;20989;-44
2021/07/06 02:15:46;;;;;;;4.30;2.90;;;;;;;22.01;100.00;99991.72;1782190;79;20972;-42
2021/07/06 02:18:20;;;;;;;6.95;6.30;;;;;;;22.03;100.00;99991.55;1788187;79;20955;-45
2021/07/06 02:20:51;;;;;;;5.62;4.60;;;;;;;22.05;100.00;99996.30;1780454;79;21495;-46
2021/07/06 02:23:18;;;;;;;5.97;3.52;;;;;;;22.07;100.00;100001.02;1765853;79;20897;-45
2021/07/06 02:25:46;;;;;;;5.47;3.45;;;;;;;22.07;100.00;99998.82;1766892;79;20922;-41
2021/07/06 02:28:14;;;;;;;4.25;3.37;;;;;;;22.05;100.00;99992.23;1761107;79;20968;-42
2021/07/06 02:30:40;;;;;;;4.33;3.22;;;;;;;22.06;100.00;99993.07;1762320;79;21366;-40
2021/07/06 02:33:07;;;;;;;4.42;3.08;;;;;;;22.03;100.00;99997.82;1755251;79;20901;-38
2021/07/06 02:35:34;;;;;;;3.10;2.80;;;;;;;22.03;100.00;100001.05;1776838;79;20927;-41
2021/07/06 02:38:01;;;;;;;4.05;3.65;;;;;;;22.03;100.00;99997.82;1742456;80;20957;-42
2021/07/06 02:40:28;;;;;;;4.20;3.30;;;;;;;22.07;100.00;99994.75;1776246;79;20961;-43
2021/07/06 02:42:55;;;;;;;3.58;2.95;;;;;;;22.08;100.00;99991.88;1750597;80;20930;-42
2021/07/06 02:45:22;;;;;;;3.40;3.02;;;;;;;22.06;100.00;99995.78;1750656;80;20987;-43
2021/07/06 02:47:50;;;;;;;5.17;3.20;;;;;;;22.05;100.00;99997.66;1785081;79;20926;-44
2021/07/06 02:50:20;;;;;;;4.67;3.37;;;;;;;22.02;100.00;99988.00;1787243;79;21501;-45
2021/07/06 02:52:47;;;;;;;6.35;3.47;;;;;;;22.01;100.00;99990.88;1766856;79;21024;-45
2021/07/06 02:55:14;;;;;;;5.12;3.55;;;;;;;21.96;100.00;99998.70;1749902;80;21479;-43
2021/07/06 02:57:41;;;;;;;3.30;3.00;;;;;;;21.95;100.00;100001.09;1753022;80;20991;-44
2021/07/06 03:00:21;;;;;;;3.72;2.77;;;;;;;21.96;100.00;99999.54;1753610;80;20942;-44
2021/07/06 03:02:53;;;;;;;4.22;3.20;;;;;;;21.97;100.00;100002.61;1781098;79;20979;-45
2021/07/06 03:05:22;;;;;;;6.85;3.65;;;;;;;22.00;100.00;100002.25;1748198;80;20958;-44
2021/07/06 03:07:49;;;;;;;5.12;3.20;;;;;;;22.01;100.00;100006.64;1784534;79;20972;-43
2021/07/06 03:10:18;;;;;;;4.72;3.52;;;;;;;22.04;100.00;100011.72;1755910;80;20961;-43
2021/07/06 03:12:46;;;;;;;5.75;3.87;;;;;;;22.09;100.00;100009.84;1753803;80;20919;-45
2021/07/06 03:15:18;;;;;;;4.97;2.95;;;;;;;22.13;100.00;100013.06;1758088;80;20923;-45
2021/07/06 03:17:46;;;;;;;;;;;;;;;22.15;100.00;100017.78;1762177;80;21459;-45
2021/07/06 03:20:15;;;;;;;4.12;2.98;;;;;;;22.16;100.00;100016.27;1755357;80;20095;-43
2021/07/06 03:22:42;;;;;;;6.25;3.58;;;;;;;22.17;100.00;100017.10;1760268;80;20955;-43
2021/07/06 03:25:10;;;;;;;4.15;3.37;;;;;;;22.16;100.00;100020.85;1784950;79;21544;-43
2021/07/06 03:27:37;;;;;;;4.15;3.30;;;;;;;22.18;100.00;100021.02;1759872;80;20955;-44
2021/07/06 03:30:11;;;;;;;7.90;3.67;;;;;;;22.20;100.00;100024.44;1757705;80;20922;-45
2021/07/06 03:32:38;;;;;;;4.10;3.22;;;;;;;22.18;100.00;100026.44;1730018;80;21925;-45
2021/07/06 03:35:06;;;;;;;3.70;3.25;;;;;;;22.18;100.00;100026.95;1755115;80;20962;-45
2021/07/06 03:37:33;;;;;;;5.00;3.85;;;;;;;22.17;100.00;100031.52;1783548;79;20951;-43
2021/07/06 03:40:02;;;;;;;4.05;3.37;;;;;;;22.16;100.00;100024.41;1756207;80;20903;-45
2021/07/06 03:42:30;;;;;;;3.62;3.25;;;;;;;22.16;100.00;100023.56;1789990;79;21054;-45
2021/07/06 03:44:57;;;;;;;4.67;3.20;;;;;;;22.16;100.00;100028.48;1778866;79;20967;-45
2021/07/06 03:47:24;;;;;;;7.00;3.08;;;;;;;22.20;100.00;100028.99;1781139;79;20959;-44
2021/07/06 03:49:50;;;;;;;4.33;3.40;;;;;;;22.22;100.00;100027.80;1761507;80;20934;-44
2021/07/06 03:52:17;;;;;;;5.80;3.20;;;;;;;22.27;100.00;100040.01;1752722;80;21051;-44
2021/07/06 03:54:44;;;;;;;5.30;4.05;;;;;;;22.30;100.00;100039.64;1760928;80;21475;-44
2021/07/06 03:57:10;;;;;;;4.78;3.87;;;;;;;22.32;100.00;100036.25;1762548;80;20959;-44
2021/07/06 03:59:37;;;;;;;6.85;4.80;;;;;;;22.34;100.00;100039.64;1761426;80;20938;-42
2021/07/06 04:02:03;;;;;;;4.50;3.87;;;;;;;22.35;100.00;100044.91;1759477;80;20969;-42
2021/07/06 04:04:30;;;;;;;5.03;3.42;;;;;;;22.34;100.00;100047.79;1759826;80;20947;-43
2021/07/06 04:06:59;;;;;;;4.72;3.67;;;;;;;22.32;100.00;100043.87;1784226;79;20971;-43
2021/07/06 04:09:27;;;;;;;4.72;3.75;;;;;;;22.30;100.00;100045.95;1758299;80;21385;-45
2021/07/06 04:11:54;;;;;;;5.12;3.77;;;;;;;22.27;100.00;100046.28;1760584;80;20998;-45
2021/07/06 04:14:20;;;;;;;6.50;3.92;;;;;;;22.27;100.00;100043.56;1761114;80;21469;-45
2021/07/06 04:16:48;;;;;;;6.47;5.05;;;;;;;22.32;100.00;100051.19;1780617;79;20986;-45
2021/07/06 04:19:15;;;;;;;7.12;4.28;;;;;;;22.34;100.00;100045.07;1758431;80;21910;-46
2021/07/06 04:21:41;;;;;;;5.40;3.72;;;;;;;22.36;100.00;100050.66;1779424;79;21034;-45
2021/07/06 04:24:08;;;;;;;7.58;3.72;;;;;;;22.39;100.00;100048.94;1781727;79;21423;-43
2021/07/06 04:26:35;;;;;;;4.35;3.67;;;;;;;22.40;100.00;100047.06;1781523;79;21505;-44
2021/07/06 04:29:02;;;;;;;6.00;4.00;;;;;;;22.40;100.00;100055.22;1783711;79;20928;-45
2021/07/06 04:31:29;;;;;;;7.22;4.28;;;;;;;22.41;100.00;100064.55;1782338;79;21367;-41
2021/07/06 04:33:56;;;;;;;4.65;3.98;;;;;;;22.40;100.00;100061.52;1778056;79;20946;-43
2021/07/06 04:36:22;;;;;;;4.97;3.20;;;;;;;22.39;100.00;100062.52;1785748;79;21540;-43
2021/07/06 04:38:49;;;;;;;5.58;4.72;;;;;;;22.42;100.00;100058.09;1776901;79;20954;-43
2021/07/06 04:41:15;;;;;;;4.78;4.12;;;;;;;22.48;100.00;100064.71;1765004;79;20989;-43
2021/07/06 04:43:42;;;;;;;4.83;4.03;;;;;;;22.53;100.00;100066.87;1773560;79;20958;-40
2021/07/06 04:46:08;;;;;;;4.37;3.80;;;;;;;22.58;100.00;100068.54;1763689;79;21006;-40
2021/07/06 04:48:36;;;;;;;4.22;3.77;;;;;;;22.63;100.00;100067.52;1774829;79;21406;-40
2021/07/06 04:51:08;;;;;;;3.85;3.45;;;;;;;22.65;100.00;100069.53;1786508;79;20967;-40
2021/07/06 04:53:35;;;;;;;4.55;4.05;;;;;;;22.64;100.00;100059.18;1782314;79;21005;-45
2021/07/06 04:56:01;;;;;;;3.90;3.55;;;;;;;22.63;100.00;100059.38;1748047;80;21399;-40
2021/07/06 04:58:29;;;;;;;5.55;4.28;;;;;;;22.61;100.00;100066.85;1774227;79;20954;-43
2021/07/06 05:00:56;;;;;;;7.92;5.25;;;;;;;22.59;100.00;100069.73;1783627;79;20946;-43
2021/07/06 05:03:23;;;;;;;5.25;3.95;;;;;;;22.57;100.00;100075.84;1752292;80;20978;-44
2021/07/06 05:05:50;;;;;;;4.67;4.22;;;;;;;22.55;100.00;100065.66;1778257;79;20956;-43
2021/07/06 05:08:17;;;;;;;6.17;4.15;;;;;;;22.56;100.00;100071.45;1778744;79;20959;-43
2021/07/06 05:10:45;;;;;;;5.50;4.55;;;;;;;22.58;100.00;100073.48;1778342;79;20998;-45
2021/07/06 05:13:12;;;;;;;4.58;4.12;;;;;;;22.56;100.00;100066.02;1779983;79;21510;-41
2021/07/06 05:15:39;;;;;;;4.47;3.47;;;;;;;22.59;100.00;100065.66;1780492;78;20950;-42
2021/07/06 05:18:05;;;;;;;9.53;5.17;;;;;;;22.64;100.00;100063.77;1778326;79;21477;-40
2021/07/06 05:20:33;;;;;;;5.08;4.22;;;;;;;22.60;100.00;100061.94;1778028;79;21060;-42
2021/07/06 05:23:00;;;;;;;8.15;4.70;;;;;;;22.58;100.00;100064.47;1781128;79;20972;-41
2021/07/06 05:25:27;;;;;;;6.20;4.47;;;;;;;22.58;100.00;100068.05;1781406;79;21032;-48
2021/07/06 05:27:53;;;;;;;6.08;4.50;;;;;;;22.57;100.00;100065.50;1764674;79;20965;-40
2021/07/06 05:30:20;;;;;;;5.25;4.20;;;;;;;22.59;100.00;100068.89;1761561;79;20948;-41
2021/07/06 05:32:47;;;;;;;8.90;5.50;;;;;;;22.60;100.00;100062.42;1787178;79;21000;-40
2021/07/06 05:35:14;;;;;;;4.45;4.05;;;;;;;22.59;100.00;100060.22;1785121;79;21497;-42
2021/07/06 05:37:41;;;;;;;5.83;4.55;;;;;;;22.59;100.00;100060.74;1786236;79;20915;-41
2021/07/06 05:40:10;;;;;;;4.53;3.80;;;;;;;22.60;100.00;100067.37;1779588;79;20982;-41
2021/07/06 05:42:37;;;;;;;6.05;4.55;;;;;;;22.66;100.00;100078.87;1785531;79;21493;-41
2021/07/06 05:45:05;;;;;;;5.87;4.10;;;;;;;22.73;100.00;100072.70;1758169;80;20977;-42
2021/07/06 05:47:35;;;;;;;4.70;4.05;;;;;;;22.78;100.00;100074.37;1757931;80;20990;-42
2021/07/06 05:50:01;;;;;;;5.83;4.35;;;;;;;22.83;100.00;100078.77;1782338;79;20980;-47
2021/07/06 05:52:28;;;;;;;5.05;4.40;;;;;;;22.85;100.00;100078.92;1782156;79;20964;-47
2021/07/06 05:54:55;;;;;;;4.87;4.37;;;;;;;22.88;100.00;100081.30;1786397;79;21014;-42
2021/07/06 05:57:30;;;;;;;5.70;4.90;;;;;;;22.90;100.00;100086.02;1786777;79;20978;-41
2021/07/06 06:00:01;;;;;;;6.17;5.25;;;;;;;22.93;100.00;100090.77;1759315;80;21021;-41
2021/07/06 06:02:28;;;;;;;8.88;5.33;;;;;;;22.94;100.00;100087.89;1783526;79;21442;-43
2021/07/06 06:04:55;;;;;;;7.78;4.60;;;;;;;22.91;100.00;100086.89;1777691;79;20971;-43
2021/07/06 06:07:23;;;;;;;4.65;4.00;;;;;;;22.92;100.00;100096.73;1779645;79;20962;-42
2021/07/06 06:09:49;;;;;;;5.62;3.90;;;;;;;22.95;100.00;100099.08;1778367;79;21496;-46
2021/07/06 06:12:17;;;;;;;5.65;4.83;;;;;;;22.97;100.00;100101.63;1750613;80;21029;-43
2021/07/06 06:14:43;;;;;;;5.12;4.37;;;;;;;23.01;100.00;100104.37;1781639;79;21063;-40
2021/07/06 06:17:10;;;;;;;5.70;4.97;;;;;;;23.04;100.00;100106.72;1746930;80;20970;-41
2021/07/06 06:19:37;;;;;;;7.83;4.97;;;;;;;23.03;100.00;100106.37;1770355;79;21414;-42
2021/07/06 06:22:04;;;;;;;6.17;5.55;;;;;;;23.03;100.00;100105.88;1737082;81;20982;-42
2021/07/06 06:24:31;;;;;;;5.67;4.62;;;;;;;23.05;100.00;100105.16;1773206;79;20933;-41
2021/07/06 06:26:58;;;;;;;5.25;4.75;;;;;;;23.08;100.00;100101.23;1770486;79;21509;-42
2021/07/06 06:29:24;;;;;;;8.60;4.83;;;;;;;23.10;100.00;100106.83;1774649;79;20978;-43
2021/07/06 06:31:51;;;;;;;8.35;4.90;;;;;;;23.10;100.00;100107.34;1747521;80;20993;-42
2021/07/06 06:34:18;;;;;;;6.17;4.53;;;;;;;23.07;100.00;100105.84;1768165;79;20927;-42
2021/07/06 06:36:44;;;;;;;7.10;5.58;;;;;;;23.04;100.00;100105.36;1768843;79;20982;-41
2021/07/06 06:39:11;;;;;;;6.97;4.75;;;;;;;23.02;100.00;100109.61;1773751;79;21380;-42
2021/07/06 06:41:38;;;;;;;5.50;4.60;;;;;;;22.99;100.00;100099.09;1774653;79;20970;-41
2021/07/06 06:44:05;;;;;;;4.95;4.45;;;;;;;22.99;100.00;100111.33;1772641;79;20965;-41
2021/07/06 06:46:33;;;;;;;5.33;4.83;;;;;;;23.02;100.00;100109.61;1771635;79;21010;-41
2021/07/06 06:49:04;;;;;;;9.85;5.37;;;;;;;23.09;100.00;100107.87;1786595;79;21006;-40
2021/07/06 06:51:29;;;;;;;5.50;5.00;;;;;;;23.18;100.00;100110.52;1772934;79;21511;-41
2021/07/06 06:53:56;;;;;;;5.58;4.33;;;;;;;23.23;100.00;100106.75;1772004;79;21041;-39
2021/07/06 06:56:22;;;;;;;4.75;4.35;;;;;;;23.27;100.00;100102.66;1783527;79;21015;-43
2021/07/06 06:58:49;;;;;;;5.83;5.30;;;;;;;23.32;100.00;100103.80;1744945;79;20967;-41
2021/07/06 07:01:17;;;;;;;7.10;5.20;;;;;;;23.39;100.00;100102.56;1785503;79;21015;-42
2021/07/06 07:03:43;;;;;;;5.60;5.03;;;;;;;23.47;100.00;100107.93;1767634;79;21009;-43
2021/07/06 07:06:10;;;;;;;5.20;4.70;;;;;;;23.53;100.00;100107.19;1771968;79;21464;-43
2021/07/06 07:08:37;;;;;;;9.38;5.05;;;;;;;23.55;100.00;100106.49;1777585;79;21000;-42
2021/07/06 07:11:04;;;;;;;5.30;4.75;;;;;;;23.54;100.00;100102.62;1784999;79;20946;-41
2021/07/06 07:13:33;;;;;;;7.80;5.20;;;;;;;23.54;100.00;100102.62;1780780;79;20960;-42
2021/07/06 07:16:00;;;;;;;6.22;5.10;;;;;;;23.59;100.00;100104.27;1786596;79;21041;-43
2021/07/06 07:18:28;;;;;;;5.35;4.83;;;;;;;23.60;100.00;100101.03;1790123;79;21458;-43
2021/07/06 07:20:55;;;;;;;5.70;5.22;;;;;;;23.61;100.00;100105.43;1776961;79;20935;-41
2021/07/06 07:23:21;;;;;;;5.28;4.78;;;;;;;23.63;100.00;100112.38;1764109;80;21477;-41
2021/07/06 07:25:49;;;;;;;5.58;5.03;;;;;;;23.67;100.00;100111.52;1781083;79;20981;-41
2021/07/06 07:28:15;;;;;;;5.87;5.30;;;;;;;23.67;100.00;100117.80;1763655;79;21409;-42
2021/07/06 07:30:42;;;;;;;5.00;4.50;;;;;;;23.67;100.00;100121.04;1760632;79;20971;-42
2021/07/06 07:33:09;;;;;;;5.58;4.75;;;;;;;23.68;100.00;100118.12;1763353;79;20975;-42
2021/07/06 07:35:35;;;;;;;8.18;6.37;;;;;;;23.71;100.00;100119.14;1764034;79;21502;-43
2021/07/06 07:38:02;;;;;;;5.47;4.97;;;;;;;23.75;100.00;100127.27;1764290;79;20929;-42
2021/07/06 07:40:28;;;;;;;5.83;5.12;;;;;;;23.79;100.00;100126.41;1768392;79;20953;-44
2021/07/06 07:42:55;;;;;;;7.83;7.05;;;;;;;23.86;100.00;100128.70;1773002;79;20946;-42
2021/07/06 07:45:25;;;;;;;7.25;5.62;;;;;;;23.92;100.00;100125.25;1769301;80;20947;-42
2021/07/06 07:47:55;;;;;;;7.90;5.40;;;;;;;23.94;100.00;100130.00;1765218;80;20965;-43
2021/07/06 07:50:23;;;;;;;6.83;5.70;;;;;;;23.97;100.00;100129.63;1783686;80;20977;-44
2021/07/06 07:52:50;;;;;;;6.17;5.55;;;;;;;24.03;100.00;100132.64;1768868;79;20907;-43
2021/07/06 07:55:17;;;;;;;5.53;5.03;;;;;;;24.09;100.00;100133.25;1782472;79;20941;-43
2021/07/06 07:57:43;;;;;;;6.45;5.70;;;;;;;24.14;100.00;100131.68;1737283;81;21046;-43
2021/07/06 08:00:12;;;;;;;6.60;5.67;;;;;;;24.22;100.00;100137.55;1782034;79;20977;-43
2021/07/06 08:02:43;;;;;;;7.62;6.03;;;;;;;24.27;100.00;100131.03;1774401;79;21555;-42
2021/07/06 08:05:09;;;;;;;6.65;5.47;;;;;;;24.34;100.00;100139.28;1765236;80;20955;-42
2021/07/06 08:07:36;;;;;;;5.95;5.42;;;;;;;24.39;100.00;100138.20;1780965;79;20967;-42
2021/07/06 08:10:04;;;;;;;6.80;5.58;;;;;;;24.45;100.00;100133.41;1767392;80;20972;-43
2021/07/06 08:12:31;;;;;;;11.25;8.33;;;;;;;24.50;100.00;100132.84;1767538;80;20945;-43
2021/07/06 08:14:57;;;;;;;6.45;5.55;;;;;;;24.55;100.00;100132.60;1782343;79;20957;-42
2021/07/06 08:17:24;;;;;;;6.08;4.80;;;;;;;24.60;100.00;100132.04;1783325;79;20968;-42
2021/07/06 08:19:52;;;;;;;9.38;5.95;;;;;;;24.64;100.00;100124.31;1760235;80;20971;-42
2021/07/06 08:22:19;;;;;;;6.08;5.55;;;;;;;24.65;100.00;100120.05;1759292;80;21440;-43
2021/07/06 08:24:46;;;;;;;6.87;5.40;;;;;;;24.71;100.00;100129.34;1785808;79;20899;-42
2021/07/06 08:27:12;;;;;;;6.00;5.42;;;;;;;24.78;100.00;100123.46;1758970;80;20987;-41
2021/07/06 08:29:39;;;;;;;5.37;4.87;;;;;;;24.82;100.00;100127.48;1754720;80;20960;-41
2021/07/06 08:32:06;;;;;;;5.87;5.33;;;;;;;24.86;100.00;100117.89;1754469;80;21022;-42
2021/07/06 08:34:33;;;;;;;5.78;4.55;;;;;;;24.90;100.00;100129.28;1783412;79;20954;-42
2021/07/06 08:36:59;;;;;;;4.75;4.35;;;;;;;24.94;100.00;100129.20;1722985;80;21028;-43
2021/07/06 08:39:26;;;;;;;7.90;4.90;;;;;;;24.97;100.00;100130.17;1784451;79;20949;-43
2021/07/06 08:41:52;;;;;;;6.33;4.97;;;;;;;25.00;100.00;100127.09;1767918;79;21419;-44
2021/07/06 08:44:21;;;;;;;6.50;4.47;;;;;;;25.04;100.00;100128.37;1764479;79;20936;-44
2021/07/06 08:46:49;;;;;;;5.90;4.37;;;;;;;25.07;100.00;100116.23;1767062;79;21004;-43
2021/07/06 08:49:21;;;;;;;5.05;4.55;;;;;;;25.11;100.00;100127.94;1775202;79;21040;-44
2021/07/06 08:51:52;;;;;;;5.33;4.30;;;;;;;25.16;100.00;100127.36;1769142;79;21008;-43
2021/07/06 08:54:19;;;;;;;5.08;4.58;;;;;;;25.21;100.00;100127.12;1769640;79;21028;-45
2021/07/06 08:56:47;;;;;;;6.37;5.00;;;;;;;25.27;100.00;100132.33;1767407;79;21006;-44
2021/07/06 08:59:14;;;;;;;5.70;4.80;;;;;;;25.34;100.00;100132.41;1766633;79;21537;-44
2021/07/06 09:01:41;;;;;;;7.08;4.42;;;;;;;25.41;100.00;100134.16;1767907;79;21826;-44
2021/07/06 09:04:08;;;;;;;5.62;4.12;;;;;;;25.51;100.00;100128.37;1769092;79;20983;-43
2021/07/06 09:06:57;;;;;;;5.67;5.12;;;;;;;25.62;100.00;100125.63;1765706;79;20949;-44
2021/07/06 09:09:28;;;;;;;6.28;4.35;;;;;;;25.71;100.00;100131.29;1773267;79;21261;-44
2021/07/06 09:11:56;;;;;;;7.08;4.45;;;;;;;25.79;100.00;100124.84;1769603;79;20918;-42
2021/07/06 09:14:28;;;;;;;6.15;4.67;;;;;;;25.85;100.00;100123.55;1768339;79;20935;-44
2021/07/06 09:17:14;;;;;;;5.90;4.30;;;;;;;25.87;100.00;100116.01;1766439;79;21445;-44
2021/07/06 09:19:44;;;;;;;4.53;4.00;;;;;;;25.85;100.00;100110.42;1770633;79;21494;-43
2021/07/06 09:22:31;;;;;;;4.87;4.25;;;;;;;25.77;100.00;100108.65;1769603;79;20945;-42
2021/07/06 09:25:02;;;;;;;4.53;4.10;;;;;;;25.72;100.00;100113.86;1772432;79;21453;-43
2021/07/06 09:27:34;;;;;;;5.72;4.20;;;;;;;25.71;100.00;100118.17;1772306;79;20965;-42
2021/07/06 09:30:20;;;;;;;7.10;4.90;;;;;;;25.70;100.00;100111.84;1771366;79;21292;-41
2021/07/06 09:32:49;;;;;;;7.45;4.85;;;;;;;25.69;100.00;100112.89;1764894;79;20937;-42
2021/07/06 09:35:23;;;;;;;5.45;4.15;;;;;;;25.70;100.00;100113.20;1772861;79;20926;-41
2021/07/06 09:37:50;;;;;;;5.67;4.35;;;;;;;25.75;100.00;100120.28;1785873;79;20960;-43
2021/07/06 09:40:24;;;;;;;;;;;;;;;25.80;100.00;100115.60;1757301;80;20974;-45
2021/07/06 09:43:17;;;;;;;7.03;4.87;;;;;;;25.87;100.00;100124.20;1748603;80;20095;-44
2021/07/06 09:46:04;;;;;;;6.47;5.15;;;;;;;25.94;100.00;100125.63;1783180;79;20907;-46
2021/07/06 09:48:33;;;;;;;7.28;4.00;;;;;;;25.98;100.00;100121.47;1780506;79;20959;-42
2021/07/06 09:51:18;;;;;;;4.37;3.98;;;;;;;26.02;100.00;100125.47;1783708;79;21500;-49
2021/07/06 09:53:51;;;;;;;5.33;3.83;;;;;;;26.07;100.00;100118.05;1725012;81;21530;-45
2021/07/06 09:56:20;;;;;;;5.47;4.42;;;;;;;26.12;100.00;100127.85;1685946;83;20947;-41
2021/07/06 09:59:00;;;;;;;4.55;4.15;;;;;;;26.16;100.00;100127.79;1700072;83;20986;-47
2021/07/06 10:01:28;;;;;;;4.80;4.35;;;;;;;26.18;100.00;100128.94;1694918;83;20975;-43
2021/07/06 10:03:56;;;;;;;4.20;3.80;;;;;;;26.19;100.00;100131.48;1697315;83;20971;-44
2021/07/06 10:06:27;;;;;;;6.05;3.70;;;;;;;26.22;100.00;100136.53;1700862;83;21956;-45
2021/07/06 10:09:01;;;;;;;4.42;4.00;;;;;;;26.28;100.00;100135.75;1698917;83;21003;-42
2021/07/06 10:11:28;;;;;;;5.97;5.35;;;;;;;26.36;100.00;100137.98;1704766;82;21503;-44
2021/07/06 10:13:58;;;;;;;5.92;3.90;;;;;;;26.45;100.00;100139.52;1683499;83;20999;-42
2021/07/06 10:16:27;;;;;;;4.25;3.85;;;;;;;26.53;100.00;100135.27;1688926;83;21024;-43
2021/07/06 10:18:56;;;;;;;5.05;4.08;;;;;;;26.60;100.00;100132.59;1690620;83;21585;-43
2021/07/06 10:21:23;;;;;;;4.95;3.70;;;;;;;26.66;100.00;100133.13;1691623;83;21019;-42
2021/07/06 10:23:50;;;;;;;7.42;3.65;;;;;;;26.69;100.00;100130.02;1665773;84;20996;-42
2021/07/06 10:26:27;;;;;;;4.28;3.87;;;;;;;26.72;100.00;100124.13;1665003;84;20959;-42
2021/07/06 10:28:55;;;;;;;4.90;4.00;;;;;;;26.76;100.00;100135.83;1686530;84;20943;-43
2021/07/06 10:31:23;;;;;;;4.47;3.45;;;;;;;26.81;100.00;100135.19;1703158;82;20950;-43
2021/07/06 10:33:50;;;;;;;5.60;4.10;;;;;;;26.86;100.00;100133.22;1742154;81;20995;-45
2021/07/06 10:36:17;;;;;;;5.28;4.05;;;;;;;26.90;100.00;100138.61;1740773;81;20994;-43
2021/07/06 10:38:49;;;;;;;4.83;3.87;;;;;;;26.91;100.00;100138.42;1704260;82;21015;-44
2021/07/06 10:41:24;;;;;;;4.53;3.47;;;;;;;26.90;100.00;100132.61;1735645;81;21038;-44
2021/07/06 10:43:53;;;;;;;3.50;3.20;;;;;;;26.92;100.00;100136.52;1721420;81;20974;-43
2021/07/06 10:46:29;;;;;;;4.23;3.80;;;;;;;26.94;100.00;100138.00;1736231;81;21482;-42
2021/07/06 10:49:15;;;;;;;5.10;4.25;;;;;;;26.97;100.00;100130.75;1738867;81;20991;-45
2021/07/06 10:51:45;;;;;;;5.58;4.20;;;;;;;27.01;100.00;100133.90;1737027;81;21025;-42
2021/07/06 10:54:22;;;;;;;6.95;3.45;;;;;;;27.05;100.00;100134.35;1707917;82;21030;-42
2021/07/06 10:57:01;;;;;;;4.15;3.75;;;;;;;27.06;100.00;100138.77;1738706;81;20975;-41
2021/07/06 10:59:35;;;;;;;5.65;3.87;;;;;;;27.08;100.00;100139.41;1740985;81;21434;-42
2021/07/06 11:02:12;;;;;;;4.53;3.77;;;;;;;27.09;100.00;100136.48;1739427;81;21012;-42
2021/07/06 11:04:52;;;;;;;4.60;3.60;;;;;;;27.11;100.00;100136.25;1739290;81;20947;-40
2021/07/06 11:07:37;;;;;;;4.58;3.98;;;;;;;27.14;100.00;100139.94;1700154;82;20932;-41
2021/07/06 11:10:06;;;;;;;8.20;3.95;;;;;;;27.15;100.00;100136.17;1720085;82;21025;-40
2021/07/06 11:12:42;;;;;;;5.28;3.40;;;;;;;27.17;100.00;100129.44;1723970;82;20980;-40
2021/07/06 11:15:27;;;;;;;3.40;3.10;;;;;;;27.21;100.00;100135.89;1735891;81;21007;-41
2021/07/06 11:18:11;;;;;;;5.15;3.62;;;;;;;27.24;100.00;100136.34;1753860;79;20997;-42
2021/07/06 11:20:45;;;;;;;3.92;3.37;;;;;;;27.30;100.00;100131.92;1766308;79;20955;-42
2021/07/06 11:23:30;;;;;;;4.03;3.47;;;;;;;27.35;100.00;100137.09;1771312;79;20956;-42
2021/07/06 11:26:04;;;;;;;4.80;4.00;;;;;;;27.39;100.00;100136.13;1695110;83;21046;-41
2021/07/06 11:28:52;;;;;;;5.80;3.80;;;;;;;27.46;100.00;100145.20;1704839;83;21862;-42